Time;durP1;ratioP1;P1;durP2;ratioP2;P2;SDS_P1;SDS_P2;PMS_P1;PMS_P2;Temp;Humidity;BMP_temperature;BMP_pressure;BME280_temperature;BME280_humidity;BME280_pressure;Samples;Min_cycle;Max_cycle;Signal;HPM_P1;HPM_P2
2021/09/07 00:01:56;;;;;;;9.33;6.67;;;12.30;99.90;12.50;97664.00;;;;5064451;28;20744;-67
2021/09/07 00:04:45;;;;;;;7.30;6.10;;;12.50;99.90;12.50;97658.00;;;;5064638;28;20215;-71
2021/09/07 00:07:35;;;;;;;6.50;5.80;;;12.50;99.90;12.50;97663.00;;;;5065171;28;20207;-69
2021/09/07 00:10:24;;;;;;;9.57;6.13;;;12.50;99.90;12.50;97666.00;;;;5064182;28;20223;-69
2021/09/07 00:13:13;;;;;;;8.47;6.00;;;12.60;99.90;12.50;97659.00;;;;5074077;28;20219;-72
2021/09/07 00:16:02;;;;;;;8.73;6.73;;;12.60;99.90;12.60;97653.00;;;;5066208;28;20576;-69
2021/09/07 00:18:51;;;;;;;8.33;5.40;;;12.60;99.90;12.60;97652.00;;;;5065452;28;20347;-69
2021/09/07 00:21:39;;;;;;;8.23;6.20;;;12.60;99.90;12.90;97650.00;;;;5064658;28;20223;-69
2021/09/07 00:24:30;;;;;;;6.30;5.67;;;12.70;99.90;12.50;97635.00;;;;5064658;28;20686;-69
2021/09/07 00:27:19;;;;;;;9.87;6.27;;;12.70;99.90;12.40;97637.00;;;;5065000;28;20200;-69
2021/09/07 00:30:09;;;;;;;8.20;6.10;;;12.70;99.90;12.20;97637.00;;;;5064637;28;20208;-70
2021/09/07 00:32:58;;;;;;;7.30;6.30;;;12.60;99.90;12.20;97641.00;;;;5066195;28;20224;-70
2021/09/07 00:35:47;;;;;;;6.60;5.73;;;12.50;99.90;12.20;97641.00;;;;5065783;28;20211;-69
2021/09/07 00:38:36;;;;;;;7.47;6.27;;;12.50;99.90;11.90;97639.00;;;;5078124;28;20303;-70
2021/09/07 00:41:26;;;;;;;7.00;5.70;;;12.40;99.90;11.80;97644.00;;;;5064428;28;20595;-69
2021/09/07 00:44:16;;;;;;;9.00;6.43;;;12.30;99.90;11.90;97638.00;;;;5065056;28;20204;-71
2021/09/07 00:47:06;;;;;;;8.13;6.03;;;12.20;99.90;12.00;97638.00;;;;5075438;28;20212;-72
2021/09/07 00:49:55;;;;;;;7.97;6.07;;;12.20;99.90;12.10;97631.00;;;;5074147;28;20224;-70
2021/09/07 00:52:44;;;;;;;7.43;5.97;;;12.20;99.90;12.30;97634.00;;;;5067409;28;20228;-71
2021/09/07 00:55:34;;;;;;;9.60;5.50;;;12.20;99.90;12.40;97631.00;;;;5064648;28;20204;-69
2021/09/07 00:58:31;;;;;;;9.17;6.10;;;12.30;99.90;12.50;97626.00;;;;5063999;28;20208;-69
2021/09/07 01:01:20;;;;;;;6.10;5.43;;;12.30;99.90;12.50;97647.00;;;;5079162;28;20299;-70
2021/09/07 01:04:09;;;;;;;9.53;6.53;;;12.40;99.90;12.40;97639.00;;;;5069274;28;20246;-70
2021/09/07 01:06:59;;;;;;;7.83;5.43;;;12.50;99.90;12.20;97629.00;;;;5068301;28;20208;-69
2021/09/07 01:09:48;;;;;;;8.60;5.97;;;12.40;99.90;12.30;97638.00;;;;5068586;28;20200;-69
2021/09/07 01:12:38;;;;;;;10.00;6.00;;;12.40;99.90;12.30;97629.00;;;;5072171;28;20231;-69
2021/09/07 01:15:28;;;;;;;7.47;5.80;;;12.40;99.90;12.50;97631.00;;;;5072725;28;20212;-70
2021/09/07 01:18:17;;;;;;;6.47;5.03;;;12.50;99.90;12.50;97632.00;;;;5067747;28;20208;-71
2021/09/07 01:21:10;;;;;;;7.47;6.03;;;12.50;99.90;12.30;97631.00;;;;5068270;28;20230;-70
2021/09/07 01:23:59;;;;;;;8.17;5.60;;;12.50;99.90;12.10;97628.00;;;;5067916;28;20211;-69
2021/09/07 01:26:50;;;;;;;6.70;5.90;;;12.40;99.90;12.10;97621.00;;;;5067887;28;20203;-69
2021/09/07 01:29:42;;;;;;;10.87;6.03;;;12.30;99.90;12.20;97619.00;;;;5068350;28;20212;-69
2021/09/07 01:32:31;;;;;;;7.83;5.93;;;12.30;99.90;12.20;97628.00;;;;5068117;28;20231;-69
2021/09/07 01:35:21;;;;;;;9.57;5.53;;;12.30;99.90;12.10;97617.00;;;;5067740;28;20226;-69
2021/09/07 01:38:10;;;;;;;7.43;5.60;;;12.30;99.90;11.70;97617.00;;;;5067756;28;20230;-69
2021/09/07 01:41:00;;;;;;;9.80;6.40;;;12.20;99.90;11.70;97619.00;;;;5067721;28;20234;-69
2021/09/07 01:43:51;;;;;;;7.40;6.07;;;12.10;99.90;11.80;97620.00;;;;5067865;28;20203;-69
2021/09/07 01:46:40;;;;;;;9.90;5.80;;;12.00;99.90;11.70;97624.00;;;;5067771;28;20212;-70
2021/09/07 01:49:29;;;;;;;8.80;6.30;;;11.90;99.90;11.70;97611.00;;;;5073598;28;20199;-70
2021/09/07 01:52:18;;;;;;;7.83;6.47;;;11.90;99.90;11.50;97604.00;;;;5074076;28;20630;-68
2021/09/07 01:55:08;;;;;;;7.40;5.70;;;11.90;99.90;11.40;97601.00;;;;5067088;28;20224;-69
2021/09/07 01:57:57;;;;;;;6.70;5.87;;;11.80;99.90;11.20;97596.00;;;;5066584;28;20221;-69
2021/09/07 02:00:47;;;;;;;8.10;5.87;;;13.10;99.90;11.00;97597.00;;;;5067739;28;20604;-69
2021/09/07 02:03:36;;;;;;;7.67;6.47;;;11.50;99.90;10.90;97605.00;;;;5066826;28;20272;-69
2021/09/07 02:06:25;;;;;;;8.13;6.20;;;11.40;99.90;10.90;97599.00;;;;5067549;28;20212;-69
2021/09/07 02:09:14;;;;;;;6.83;5.73;;;11.40;99.90;11.00;97605.00;;;;5066843;28;20203;-70
2021/09/07 02:12:03;;;;;;;9.90;6.50;;;11.30;99.90;11.00;97604.00;;;;5068043;28;20247;-69
2021/09/07 02:14:53;;;;;;;9.83;7.27;;;11.30;99.90;11.10;97602.00;;;;5067674;28;20216;-69
2021/09/07 02:17:44;;;;;;;6.63;6.03;;;11.30;99.90;11.10;97618.00;;;;5066411;28;20204;-68
2021/09/07 02:20:33;;;;;;;8.27;6.00;;;11.30;99.90;11.30;97603.00;;;;5073478;28;20210;-69
2021/09/07 02:23:22;;;;;;;5.90;5.27;;;11.30;99.90;11.20;97599.00;;;;5071081;28;20575;-69
2021/09/07 02:26:11;;;;;;;8.30;6.67;;;11.30;99.90;11.30;97600.00;;;;5067794;28;20219;-70
2021/09/07 02:28:59;;;;;;;7.17;5.67;;;11.40;99.90;11.00;97598.00;;;;5067173;28;20682;-69
2021/09/07 02:31:48;;;;;;;8.43;7.00;;;11.30;99.90;10.90;97604.00;;;;5066206;28;20231;-69
2021/09/07 02:34:38;;;;;;;7.83;6.47;;;11.30;99.90;10.80;97598.00;;;;5067485;28;20203;-70
2021/09/07 02:37:27;;;;;;;9.80;6.33;;;11.20;99.90;10.80;97602.00;;;;5065631;28;20212;-70
2021/09/07 02:40:16;;;;;;;7.73;5.87;;;11.10;99.90;10.80;97599.00;;;;5066916;28;20686;-69
2021/09/07 02:43:05;;;;;;;7.80;6.93;;;11.10;99.90;10.90;97599.00;;;;5066479;28;20208;-71
2021/09/07 02:45:55;;;;;;;9.83;6.47;;;11.10;99.90;10.80;97594.00;;;;5067561;28;20211;-69
2021/09/07 02:48:43;;;;;;;9.73;6.70;;;11.10;99.90;10.60;97593.00;;;;5066476;28;20227;-68
2021/09/07 02:51:34;;;;;;;6.20;5.30;;;11.00;99.90;10.40;97590.00;;;;5063742;28;20219;-70
2021/09/07 02:54:24;;;;;;;8.67;6.37;;;10.90;99.90;10.40;97582.00;;;;5066949;28;20200;-68
2021/09/07 02:57:13;;;;;;;8.77;5.97;;;10.90;99.90;10.30;97595.00;;;;5066044;28;20207;-68
2021/09/07 03:00:02;;;;;;;10.30;5.50;;;10.80;99.90;10.30;97596.00;;;;5066000;28;20705;-69
2021/09/07 03:02:51;;;;;;;9.47;6.23;;;10.70;99.90;10.30;97591.00;;;;5066991;28;20210;-68
2021/09/07 03:05:39;;;;;;;;;;;10.70;99.90;10.20;97587.00;;;;5068313;28;20045;-69
2021/09/07 03:08:31;;;;;;;9.80;6.43;;;10.60;99.90;10.10;97593.00;;;;5066239;28;20020;-69
2021/09/07 03:11:20;;;;;;;8.53;6.40;;;10.60;99.90;10.20;97584.00;;;;5065615;28;20220;-70
2021/09/07 03:14:09;;;;;;;8.50;6.43;;;10.50;99.90;10.30;97589.00;;;;5077438;28;20212;-69
2021/09/07 03:16:58;;;;;;;7.30;6.47;;;10.50;99.90;10.40;97592.00;;;;5065502;28;20678;-69
2021/09/07 03:19:47;;;;;;;8.77;6.10;;;10.50;99.90;10.40;97591.00;;;;5066500;28;20208;-69
2021/09/07 03:22:35;;;;;;;10.57;6.03;;;10.50;99.90;10.00;97589.00;;;;5064999;28;20234;-68
2021/09/07 03:25:26;;;;;;;9.57;7.17;;;10.50;99.90;10.10;97588.00;;;;5065380;28;20220;-70
2021/09/07 03:28:15;;;;;;;8.97;7.17;;;10.50;99.90;10.40;97602.00;;;;5065099;28;20223;-70
2021/09/07 03:31:04;;;;;;;10.53;6.93;;;10.50;99.90;10.20;97593.00;;;;5065907;28;20223;-68
2021/09/07 03:33:53;;;;;;;12.20;7.40;;;10.50;99.90;10.20;97586.00;;;;5066453;28;20215;-70
2021/09/07 03:36:42;;;;;;;10.30;6.57;;;10.50;99.90;10.40;97581.00;;;;5065829;28;20227;-69
2021/09/07 03:39:31;;;;;;;6.80;6.10;;;10.50;99.90;10.60;97580.00;;;;5065938;28;20212;-70
2021/09/07 03:42:21;;;;;;;8.43;6.83;;;10.50;99.90;10.50;97581.00;;;;5066965;28;20219;-69
2021/09/07 03:45:14;;;;;;;9.90;7.17;;;10.60;99.90;10.30;97590.00;;;;5072029;28;20232;-69
2021/09/07 03:48:03;;;;;;;7.00;5.60;;;10.60;99.90;10.10;97593.00;;;;5072512;28;20211;-69
2021/09/07 03:50:52;;;;;;;7.00;5.97;;;10.60;99.90;10.00;97586.00;;;;5084718;28;20231;-70
2021/09/07 03:53:40;;;;;;;7.43;6.60;;;10.50;99.90;10.00;97585.00;;;;5065393;28;20223;-69
2021/09/07 03:56:30;;;;;;;8.13;6.07;;;10.40;99.90;9.90;97585.00;;;;5065335;28;20234;-70
2021/09/07 03:59:21;;;;;;;7.80;6.43;;;10.30;99.90;9.70;97595.00;;;;5066454;28;20208;-69
2021/09/07 04:02:10;;;;;;;9.43;6.50;;;10.20;99.90;9.60;97588.00;;;;5080244;28;20223;-70
2021/09/07 04:04:58;;;;;;;8.17;6.43;;;10.10;99.90;9.60;97593.00;;;;5084194;28;20245;-70
2021/09/07 04:07:48;;;;;;;10.83;6.73;;;10.10;99.90;9.50;97594.00;;;;5079976;28;20215;-70
2021/09/07 04:10:37;;;;;;;10.13;6.43;;;10.00;99.90;9.50;97585.00;;;;5066670;28;20581;-70
2021/09/07 04:13:26;;;;;;;8.23;6.40;;;9.90;99.90;9.60;97589.00;;;;5083441;28;20207;-71
2021/09/07 04:16:16;;;;;;;10.27;6.23;;;9.90;99.90;9.60;97598.00;;;;5065447;28;20706;-70
2021/09/07 04:19:05;;;;;;;9.97;6.97;;;9.90;99.90;9.30;97585.00;;;;5079200;28;20211;-69
2021/09/07 04:21:54;;;;;;;9.00;6.80;;;9.80;99.90;9.40;97589.00;;;;5065125;28;20600;-70
2021/09/07 04:24:43;;;;;;;7.37;5.73;;;9.80;99.90;9.30;97588.00;;;;5065796;28;20220;-69
2021/09/07 04:27:32;;;;;;;8.90;7.57;;;9.80;99.90;9.40;97589.00;;;;5065620;28;20200;-68
2021/09/07 04:30:21;;;;;;;9.23;6.57;;;9.80;99.90;9.40;97593.00;;;;5066283;28;20204;-70
2021/09/07 04:33:13;;;;;;;14.07;7.07;;;9.70;99.90;9.20;97599.00;;;;5083448;28;20207;-69
2021/09/07 04:36:01;;;;;;;16.47;7.90;;;9.70;99.90;9.30;97594.00;;;;5064794;28;20211;-70
2021/09/07 04:38:50;;;;;;;9.00;7.47;;;9.70;99.90;9.50;97591.00;;;;5069199;28;20223;-69
2021/09/07 04:41:39;;;;;;;7.67;6.57;;;9.60;99.90;9.60;97586.00;;;;5077904;28;20235;-70
2021/09/07 04:44:28;;;;;;;8.40;7.07;;;9.70;99.90;9.60;97589.00;;;;5069684;28;20203;-68
2021/09/07 04:47:17;;;;;;;7.20;6.20;;;9.80;99.90;9.80;97587.00;;;;5066825;28;20329;-69
2021/09/07 04:50:08;;;;;;;7.60;6.77;;;9.80;99.90;9.60;97586.00;;;;5078492;28;20211;-70
2021/09/07 04:52:57;;;;;;;11.80;6.53;;;9.80;99.90;9.30;97575.00;;;;5069763;28;20219;-70
2021/09/07 04:55:47;;;;;;;8.10;6.47;;;9.80;99.90;9.40;97578.00;;;;5069201;28;20197;-67
2021/09/07 04:58:36;;;;;;;11.83;6.50;;;9.80;99.90;9.30;97578.00;;;;5068486;28;20811;-69
2021/09/07 05:01:24;;;;;;;7.93;6.00;;;9.80;99.90;9.30;97573.00;;;;5067347;28;20219;-69
2021/09/07 05:04:14;;;;;;;8.53;6.23;;;9.70;99.90;9.40;97576.00;;;;5077785;28;20204;-70
2021/09/07 05:07:04;;;;;;;7.83;6.50;;;9.70;99.90;9.40;97580.00;;;;5084281;28;20583;-69
2021/09/07 05:09:54;;;;;;;8.20;6.90;;;9.70;99.90;9.20;97568.00;;;;5070857;28;20359;-69
2021/09/07 05:12:43;;;;;;;11.77;7.27;;;9.70;99.90;9.10;97583.00;;;;5072334;28;20235;-69
2021/09/07 05:15:32;;;;;;;7.63;6.50;;;9.60;99.90;9.10;97585.00;;;;5070007;28;20215;-70
2021/09/07 05:18:21;;;;;;;10.80;6.73;;;9.60;99.90;9.20;97574.00;;;;5067294;28;20200;-70
2021/09/07 05:21:10;;;;;;;9.03;6.93;;;9.60;99.90;9.20;97578.00;;;;5065821;28;20238;-70
2021/09/07 05:24:00;;;;;;;9.97;7.27;;;9.60;99.90;9.40;97590.00;;;;5068533;28;20204;-69
2021/09/07 05:26:49;;;;;;;11.07;7.40;;;9.70;99.90;9.60;97589.00;;;;5067942;28;20243;-69
2021/09/07 05:29:38;;;;;;;7.33;5.90;;;9.80;99.90;9.70;97588.00;;;;5067963;28;20196;-68
2021/09/07 05:32:26;;;;;;;10.73;5.73;;;9.90;99.90;9.70;97586.00;;;;5068223;28;20220;-68
2021/09/07 05:35:15;;;;;;;8.13;6.27;;;9.90;99.90;9.60;97592.00;;;;5068303;28;20200;-70
2021/09/07 05:38:05;;;;;;;13.13;7.83;;;9.90;99.90;9.60;97581.00;;;;5083857;28;20215;-70
2021/09/07 05:40:55;;;;;;;11.47;6.40;;;9.90;99.90;9.90;97580.00;;;;5088607;28;20602;-69
2021/09/07 05:43:44;;;;;;;9.10;7.27;;;10.00;99.90;10.10;97584.00;;;;5069255;28;20659;-69
2021/09/07 05:46:33;;;;;;;9.93;7.63;;;10.10;99.90;10.30;97591.00;;;;5082236;28;20238;-70
2021/09/07 05:49:22;;;;;;;8.63;7.13;;;10.30;99.90;10.40;97592.00;;;;5076997;28;20215;-70
2021/09/07 05:52:11;;;;;;;11.90;7.13;;;10.40;99.90;10.40;97592.00;;;;5086445;28;20234;-70
2021/09/07 05:55:00;;;;;;;7.40;6.10;;;10.50;99.90;10.70;97599.00;;;;5087343;28;20207;-70
2021/09/07 05:57:53;;;;;;;8.10;6.80;;;10.60;99.90;10.80;97591.00;;;;5082138;28;20682;-70
2021/09/07 06:00:41;;;;;;;7.40;6.10;;;10.80;99.90;11.00;97596.00;;;;5068441;28;20208;-70
2021/09/07 06:03:30;;;;;;;8.50;6.57;;;10.90;99.90;11.20;97598.00;;;;5067027;28;20281;-69
2021/09/07 06:06:21;;;;;;;8.90;6.40;;;11.10;99.90;11.30;97602.00;;;;5066784;28;20250;-69
2021/09/07 06:09:10;;;;;;;10.17;6.67;;;11.20;99.90;11.50;97595.00;;;;5066905;28;20196;-70
2021/09/07 06:11:58;;;;;;;7.90;6.47;;;11.30;99.90;11.80;97601.00;;;;5073483;28;20226;-69
2021/09/07 06:14:49;;;;;;;9.37;6.80;;;11.50;99.90;11.80;97597.00;;;;5078737;28;20206;-70
2021/09/07 06:17:38;;;;;;;8.67;6.13;;;11.70;99.90;11.70;97589.00;;;;5086743;28;20585;-70
2021/09/07 06:20:26;;;;;;;8.77;6.97;;;11.80;99.90;11.90;97603.00;;;;5078107;28;20675;-70
2021/09/07 06:23:15;;;;;;;9.43;6.33;;;11.90;99.90;12.10;97605.00;;;;5084464;28;20863;-69
2021/09/07 06:26:04;;;;;;;11.27;7.03;;;12.00;99.90;12.40;97600.00;;;;5080201;28;20219;-70
2021/09/07 06:28:53;;;;;;;10.50;7.00;;;12.20;99.90;12.40;97598.00;;;;5084221;28;20215;-69
2021/09/07 06:31:43;;;;;;;7.10;6.40;;;12.30;99.90;12.60;97589.00;;;;5082753;28;20701;-69
2021/09/07 06:34:32;;;;;;;11.57;7.47;;;12.50;99.90;13.10;97609.00;;;;5078963;28;20207;-69
2021/09/07 06:37:21;;;;;;;13.77;8.93;;;12.70;99.90;13.20;97592.00;;;;5078941;28;20790;-69
2021/09/07 06:40:12;;;;;;;9.93;6.33;;;12.90;99.90;13.50;97596.00;;;;5086320;28;20579;-70
2021/09/07 06:43:01;;;;;;;9.33;7.33;;;13.20;99.90;13.90;97603.00;;;;5070643;28;20219;-70
2021/09/07 06:45:50;;;;;;;16.50;7.90;;;13.50;99.90;14.30;97598.00;;;;5067213;28;20219;-69
2021/09/07 06:48:40;;;;;;;10.27;7.97;;;13.80;99.90;14.40;97604.00;;;;5065384;28;20558;-71
2021/09/07 06:51:29;;;;;;;11.07;7.87;;;14.00;99.90;14.50;97609.00;;;;5081436;28;20227;-69
2021/09/07 06:54:18;;;;;;;9.63;8.33;;;14.20;99.90;14.40;97613.00;;;;5068922;28;20209;-70
2021/09/07 06:57:07;;;;;;;13.90;8.90;;;14.40;99.90;14.60;97604.00;;;;5069399;28;20219;-71
2021/09/07 06:59:56;;;;;;;;;;;14.50;99.90;15.20;97607.00;;;;5072624;28;20043;-70
2021/09/07 07:02:45;;;;;;;;;;;14.60;99.90;15.70;97595.00;;;;5065772;28;19931;-70
2021/09/07 07:05:35;;;;;;;;;;;14.90;99.90;16.00;97612.00;;;;5066906;28;19927;-70
2021/09/07 07:08:24;;;;;;;;;;;15.20;99.90;16.20;97602.00;;;;5067517;28;19953;-69
2021/09/07 07:11:12;;;;;;;;;;;15.40;99.90;16.30;97601.00;;;;5061795;28;19929;-71
2021/09/07 07:14:01;;;;;;;;;;;15.70;99.90;16.10;97605.00;;;;5066947;28;19928;-70
2021/09/07 07:16:50;;;;;;;;;;;15.80;99.90;16.20;97602.00;;;;5064975;28;19920;-70
2021/09/07 07:19:39;;;;;;;;;;;16.00;99.90;16.50;97598.00;;;;5066264;28;20411;-69
2021/09/07 07:22:29;;;;;;;;;;;16.10;99.90;16.80;97610.00;;;;5066749;28;20284;-70
2021/09/07 07:25:18;;;;;;;14.33;9.10;;;16.30;99.90;16.90;97611.00;;;;5068143;28;20697;-71
2021/09/07 07:28:07;;;;;;;16.50;10.30;;;16.40;99.90;16.90;97609.00;;;;5062169;28;20219;-70
2021/09/07 07:30:56;;;;;;;15.33;10.53;;;16.50;99.90;16.90;97608.00;;;;5071118;28;20218;-70
2021/09/07 07:33:45;;;;;;;18.30;10.03;;;16.60;99.90;17.10;97617.00;;;;5064171;28;20207;-69
2021/09/07 07:36:34;;;;;;;14.87;8.87;;;16.70;99.90;17.10;97613.00;;;;5067808;28;20238;-71
2021/09/07 07:39:25;;;;;;;14.37;9.17;;;16.90;99.90;17.50;97607.00;;;;5063671;28;20199;-70
2021/09/07 07:42:14;;;;;;;15.63;9.10;;;17.00;99.90;17.50;97614.00;;;;5067191;28;20226;-69
2021/09/07 07:45:03;;;;;;;14.90;8.97;;;17.20;99.90;17.70;97616.00;;;;5065856;28;20814;-71
2021/09/07 07:47:52;;;;;;;16.87;8.90;;;17.30;99.90;17.60;97616.00;;;;5067042;28;20219;-70
2021/09/07 07:50:40;;;;;;;14.30;9.60;;;17.30;99.90;17.70;97618.00;;;;5063660;28;20585;-68
2021/09/07 07:53:29;;;;;;;12.03;8.40;;;17.50;99.90;18.00;97625.00;;;;5065926;28;20698;-69
2021/09/07 07:56:20;;;;;;;16.70;9.17;;;17.60;99.90;18.20;97618.00;;;;5064026;28;20204;-70
2021/09/07 07:59:09;;;;;;;11.40;8.83;;;17.70;99.90;17.80;97622.00;;;;5063229;28;20218;-70
2021/09/07 08:01:58;;;;;;;13.70;8.57;;;17.70;99.90;17.90;97625.00;;;;5062863;28;20219;-69
2021/09/07 08:04:48;;;;;;;17.33;9.40;;;17.80;99.90;18.20;97622.00;;;;5070548;28;20270;-70
2021/09/07 08:07:37;;;;;;;10.53;8.27;;;17.90;99.90;18.30;97621.00;;;;5068521;28;20220;-70
2021/09/07 08:10:26;;;;;;;15.07;9.03;;;18.00;99.90;18.30;97623.00;;;;5067550;28;20222;-70
2021/09/07 08:13:17;;;;;;;15.67;9.57;;;18.10;99.90;18.40;97624.00;;;;5071430;28;20214;-70
2021/09/07 08:16:06;;;;;;;14.03;8.27;;;18.10;99.90;18.20;97626.00;;;;5069226;28;20204;-69
2021/09/07 08:18:55;;;;;;;14.27;8.40;;;18.10;99.90;18.50;97630.00;;;;5077250;28;20208;-70
2021/09/07 08:21:45;;;;;;;14.47;9.50;;;18.10;99.90;18.80;97627.00;;;;5071633;28;20707;-69
2021/09/07 08:24:34;;;;;;;13.40;9.07;;;18.20;99.90;19.40;97617.00;;;;5070701;28;20207;-69
2021/09/07 08:27:23;;;;;;;15.83;9.83;;;18.40;99.90;19.90;97615.00;;;;5068766;28;20702;-69
2021/09/07 08:30:15;;;;;;;11.73;8.77;;;18.80;99.90;20.30;97621.00;;;;5065985;28;20671;-70
2021/09/07 08:33:04;;;;;;;12.10;7.80;;;19.20;99.90;20.50;97619.00;;;;5069886;28;20585;-71
2021/09/07 08:35:52;;;;;;;12.30;7.93;;;19.50;99.90;20.80;97626.00;;;;5068841;28;20200;-69
2021/09/07 08:38:42;;;;;;;11.27;7.90;;;19.80;99.90;21.00;97624.00;;;;5075231;28;20215;-70
2021/09/07 08:41:31;;;;;;;9.30;6.33;;;20.10;99.90;21.00;97620.00;;;;5072838;28;20597;-69
2021/09/07 08:44:21;;;;;;;10.73;6.43;;;20.20;99.90;21.20;97629.00;;;;5070261;28;20203;-71
2021/09/07 08:47:13;;;;;;;9.33;6.93;;;20.40;99.90;21.30;97629.00;;;;5070314;28;20479;-70
2021/09/07 08:50:02;;;;;;;10.27;6.57;;;20.50;99.90;21.50;97616.00;;;;5063120;28;20588;-70
2021/09/07 08:52:55;;;;;;;10.10;7.37;;;20.70;99.90;21.90;97620.00;;;;5068849;28;20195;-69
2021/09/07 08:55:44;;;;;;;8.83;7.00;;;20.90;99.90;22.20;97629.00;;;;5073139;28;20578;-68
2021/09/07 08:58:33;;;;;;;10.43;6.60;;;21.10;99.90;22.20;97618.00;;;;5067803;28;20246;-71
2021/09/07 09:01:23;;;;;;;10.10;6.20;;;21.40;99.90;22.10;97641.00;;;;5064822;28;20220;-69
2021/09/07 09:04:33;;;;;;;10.87;7.37;;;21.50;99.90;22.50;97620.00;;;;5069749;28;20196;-69
2021/09/07 09:07:24;;;;;;;12.73;7.37;;;21.60;99.90;22.80;97624.00;;;;5064677;28;20238;-70
2021/09/07 09:10:21;;;;;;;8.33;6.10;;;21.90;99.90;23.10;97616.00;;;;5071451;28;20691;-70
2021/09/07 09:13:13;;;;;;;8.40;5.57;;;22.10;99.90;23.40;97630.00;;;;5062667;28;20200;-70
2021/09/07 09:16:06;;;;;;;8.17;5.60;;;22.30;99.90;23.50;97625.00;;;;5065446;28;20286;-69
2021/09/07 09:18:58;;;;;;;7.93;6.30;;;22.50;99.90;23.40;97625.00;;;;5070378;28;20203;-68
2021/09/07 09:21:51;;;;;;;8.97;6.63;;;22.70;99.90;23.80;97630.00;;;;5067479;28;20288;-69
2021/09/07 09:24:40;;;;;;;10.97;6.53;;;22.90;99.90;24.00;97626.00;;;;5063848;28;20716;-69
2021/09/07 09:27:29;;;;;;;6.63;5.33;;;23.10;98.00;23.70;97625.00;;;;5061775;28;21134;-69
2021/09/07 09:30:24;;;;;;;14.37;6.47;;;23.20;96.30;24.20;97627.00;;;;5068394;28;20226;-69
2021/09/07 09:33:17;;;;;;;9.53;6.43;;;23.30;95.00;23.80;97626.00;;;;5064927;28;20204;-69
2021/09/07 09:36:06;;;;;;;8.33;5.53;;;23.40;95.40;23.80;97612.00;;;;5068947;28;20207;-70
2021/09/07 09:38:57;;;;;;;7.50;5.30;;;23.50;92.20;23.50;97608.00;;;;5065298;28;20192;-68
2021/09/07 09:41:51;;;;;;;7.07;5.30;;;23.50;89.50;23.80;97603.00;;;;5064874;28;20257;-70
2021/09/07 09:44:39;;;;;;;8.90;5.80;;;23.60;90.10;23.90;97607.00;;;;5066158;28;20227;-70
2021/09/07 09:47:38;;;;;;;9.13;5.30;;;23.50;90.10;23.50;97615.00;;;;5068626;28;20693;-70
2021/09/07 09:50:27;;;;;;;10.50;5.90;;;23.60;89.10;23.70;97608.00;;;;5064676;28;20207;-69
2021/09/07 09:53:16;;;;;;;6.83;5.53;;;23.50;86.00;24.40;97594.00;;;;5068390;28;20203;-68
2021/09/07 09:56:07;;;;;;;10.07;5.47;;;23.70;84.70;24.70;97600.00;;;;5063122;28;20575;-68
2021/09/07 09:58:56;;;;;;;8.67;5.50;;;23.80;85.30;24.90;97614.00;;;;5066777;28;20199;-69
2021/09/07 10:01:45;;;;;;;7.07;5.17;;;24.00;86.70;24.10;97605.00;;;;5068823;28;20224;-69
2021/09/07 10:04:34;;;;;;;8.10;5.60;;;24.10;81.50;23.70;97601.00;;;;5068646;28;20682;-71
2021/09/07 10:07:24;;;;;;;10.47;5.43;;;23.90;78.90;24.10;97604.00;;;;5069224;28;20204;-70
2021/09/07 10:10:21;;;;;;;8.30;5.53;;;23.80;80.00;24.90;97609.00;;;;5066450;28;20204;-71
2021/09/07 10:13:17;;;;;;;7.90;5.17;;;24.00;81.80;25.20;97611.00;;;;5069521;28;20212;-71
2021/09/07 10:16:08;;;;;;;8.67;5.87;;;24.30;79.30;24.40;97604.00;;;;5064577;28;20218;-70
2021/09/07 10:19:06;;;;;;;7.63;5.77;;;24.30;75.90;24.80;97612.00;;;;5064983;28;20492;-71
2021/09/07 10:25:00;;;;;;;9.30;5.27;;;24.30;69.30;25.00;97598.00;;;;5065125;28;20621;-71
2021/09/07 10:28:08;;;;;;;7.60;5.50;;;24.30;71.70;24.20;97598.00;;;;5069144;28;20725;-72
2021/09/07 10:31:07;;;;;;;7.27;5.03;;;24.30;70.70;22.60;97595.00;;;;5068067;28;20210;-71
2021/09/07 10:34:00;;;;;;;6.70;4.67;;;23.70;66.40;23.30;97587.00;;;;5067931;28;20204;-71
2021/09/07 10:37:01;;;;;;;9.40;4.80;;;23.50;68.40;24.60;97580.00;;;;5066351;28;20936;-71
2021/09/07 10:39:50;;;;;;;8.83;4.77;;;23.70;70.10;25.30;97579.00;;;;5066073;28;20212;-70
2021/09/07 10:42:53;;;;;;;9.87;5.30;;;24.00;69.80;25.20;97591.00;;;;5064808;28;23772;-70
2021/09/07 10:45:42;;;;;;;7.83;5.10;;;24.30;68.70;25.40;97576.00;;;;5061184;28;20207;-71
2021/09/07 10:48:34;;;;;;;8.57;5.20;;;24.70;68.60;23.90;97567.00;;;;5061076;28;20224;-70
2021/09/07 10:51:23;;;;;;;6.10;5.33;;;24.50;64.40;24.30;97554.00;;;;5065495;28;20218;-72
2021/09/07 10:54:12;;;;;;;8.80;5.80;;;24.30;65.00;25.40;97577.00;;;;5063905;28;20200;-69
2021/09/07 10:57:01;;;;;;;6.67;4.70;;;24.40;67.00;25.10;97588.00;;;;5065200;28;20203;-69
2021/09/07 10:59:53;;;;;;;6.50;4.47;;;24.60;65.90;25.00;97575.00;;;;5062289;28;20197;-69
2021/09/07 11:02:44;;;;;;;7.07;5.10;;;24.70;64.30;25.80;97570.00;;;;5060572;28;20609;-69
2021/09/07 11:05:41;;;;;;;5.50;5.00;;;24.90;64.80;25.10;97583.00;;;;5064597;28;20221;-69
2021/09/07 11:08:46;;;;;;;7.87;4.60;;;25.10;64.00;25.80;97565.00;;;;5064469;28;20244;-70
2021/09/07 11:11:35;;;;;;;8.00;4.90;;;25.20;65.90;26.50;97588.00;;;;5063007;28;20224;-69
2021/09/07 11:14:24;;;;;;;7.33;5.30;;;25.40;65.00;25.80;97576.00;;;;5065972;28;20214;-68
2021/09/07 11:17:14;;;;;;;7.73;5.40;;;25.50;62.10;26.20;97583.00;;;;5063525;28;20210;-69
2021/09/07 11:20:07;;;;;;;6.60;4.83;;;25.60;59.20;25.70;97576.00;;;;5063742;28;20203;-70
2021/09/07 11:22:58;;;;;;;8.13;5.57;;;25.50;61.40;25.40;97583.00;;;;5063271;28;20230;-69
2021/09/07 11:25:50;;;;;;;5.97;4.03;;;25.50;62.50;25.40;97575.00;;;;5068963;28;20282;-70
2021/09/07 11:28:41;;;;;;;6.67;4.90;;;25.40;61.60;25.70;97570.00;;;;5061036;28;20228;-67
2021/09/07 11:31:30;;;;;;;7.07;4.07;;;25.40;62.20;24.90;97583.00;;;;5063597;28;20730;-70
2021/09/07 11:34:20;;;;;;;6.03;5.10;;;25.30;60.30;24.50;97581.00;;;;5065234;28;20207;-71
2021/09/07 11:37:19;;;;;;;6.37;5.40;;;25.10;61.40;25.60;97564.00;;;;5064582;28;20232;-71
2021/09/07 11:40:11;;;;;;;7.30;5.50;;;25.10;63.00;26.70;97573.00;;;;5063765;28;20211;-71
2021/09/07 11:43:02;;;;;;;6.93;4.47;;;25.30;65.00;26.50;97575.00;;;;5064119;28;20208;-70
2021/09/07 11:45:51;;;;;;;6.73;5.27;;;25.60;63.40;25.80;97583.00;;;;5067979;28;20200;-70
2021/09/07 11:48:44;;;;;;;5.97;4.93;;;25.80;59.90;24.80;97585.00;;;;5068557;28;20221;-70
2021/09/07 11:51:37;;;;;;;5.97;5.00;;;25.50;59.30;25.50;97593.00;;;;5066784;28;20224;-72
2021/09/07 11:54:28;;;;;;;10.97;5.40;;;25.40;59.50;25.70;97588.00;;;;5065841;28;20204;-71
2021/09/07 11:57:18;;;;;;;6.23;5.23;;;25.30;59.10;25.90;97592.00;;;;5063485;28;20695;-72
2021/09/07 12:00:10;;;;;;;8.30;5.57;;;25.30;59.70;24.90;97579.00;;;;5065867;28;20232;-72
2021/09/07 12:03:16;;;;;;;6.40;4.27;;;25.20;58.20;24.80;97582.00;;;;5063361;28;20599;-72
2021/09/07 12:06:13;;;;;;;9.73;4.83;;;25.10;58.70;25.10;97579.00;;;;5066294;28;20233;-72
2021/09/07 12:09:19;;;;;;;6.53;4.27;;;24.90;60.50;24.70;97580.00;;;;5064900;28;20238;-71
2021/09/07 12:12:13;;;;;;;5.73;4.40;;;24.80;58.60;24.10;97585.00;;;;5064825;28;20231;-70
2021/09/07 12:15:16;;;;;;;6.80;4.70;;;24.60;59.00;24.40;97572.00;;;;5064076;28;20262;-68
2021/09/07 12:18:06;;;;;;;7.23;5.13;;;22.40;58.30;24.40;97569.00;;;;5069458;28;20212;-70
2021/09/07 12:21:14;;;;;;;9.63;4.70;;;24.30;59.30;25.00;97577.00;;;;5060215;28;20220;-70
2021/09/07 12:24:15;;;;;;;5.77;4.60;;;24.30;59.90;24.20;97580.00;;;;5062721;28;22241;-71
2021/09/07 12:27:20;;;;;;;5.83;4.57;;;24.40;60.30;24.20;97569.00;;;;5066655;28;20200;-70
2021/09/07 12:30:20;;;;;;;6.53;4.93;;;24.30;59.90;24.10;97578.00;;;;5064253;28;20281;-71
2021/09/07 12:33:13;;;;;;;7.13;4.63;;;24.10;59.90;23.30;97577.00;;;;5060811;28;20204;-71
2021/09/07 12:36:03;;;;;;;5.30;4.80;;;23.70;60.00;23.00;97562.00;;;;5061257;28;20206;-70
2021/09/07 12:38:52;;;;;;;5.60;4.57;;;23.40;59.70;23.30;97569.00;;;;5060880;28;20196;-70
2021/09/07 12:41:43;;;;;;;6.70;4.30;;;23.30;59.90;23.40;97560.00;;;;5063108;28;20340;-70
2021/09/07 12:44:32;;;;;;;7.93;5.27;;;23.30;59.90;23.50;97558.00;;;;5064818;28;20581;-70